Weather reports worldwide

Advertisment
Glen Ogle, United Kingdom (3148): temperature & dewpoint: 14.10.2017 08:00:00 - 20.10.2017 08:00:00 (BST)Glen Ogle, United Kingdom (3148): wind speed & gusts: 14.10.2017 08:00:00 - 20.10.2017 08:00:00 (BST)Glen Ogle, United Kingdom (3148): wind direction: 14.10.2017 08:00:00 - 20.10.2017 08:00:00 (BST)
Date & Time tt [°C] td [°C] ff [km/h] ff [kn] fx [km/h] fx [kn] dd
20.10.2017 08:00:00 - - - - - - -
20.10.2017 07:00:00 8,1 8,1 9 5 - - NW
20.10.2017 06:00:00 8,1 8,1 16 9 - - WNW
20.10.2017 05:00:00 8,3 8,3 11 6 - - NNW
20.10.2017 04:00:00 8,4 8,4 4 2 - - WNW
20.10.2017 03:00:00 8,2 8,2 8 4 - - N
20.10.2017 02:00:00 8,8 8,8 8 4 - - N
20.10.2017 01:00:00 8,5 8,5 9 5 - - NE
20.10.2017 00:00:00 8,4 8,4 11 6 - - NE
19.10.2017 23:00:00 8,3 8,3 4 2 - - NNE
19.10.2017 22:00:00 8,5 8,5 21 11 - - ESE
19.10.2017 21:00:00 8,4 8,4 28 15 - - E
19.10.2017 20:00:00 8,5 8,5 29 16 - - ESE
19.10.2017 19:00:00 8,5 8,5 37 20 - - ESE
19.10.2017 18:00:00 8,5 8,5 31 17 50 27 ESE
19.10.2017 17:00:00 8,7 8,7 37 20 46 25 ESE
19.10.2017 16:00:00 8,8 8,7 35 19 46 25 SE
19.10.2017 15:00:00 8,8 8,8 35 19 48 26 SE
19.10.2017 14:00:00 9,1 9,0 37 20 50 27 SSE
19.10.2017 13:00:00 8,5 8,5 34 18 52 28 SE
19.10.2017 12:00:00 8,5 8,3 34 18 57 31 SE
19.10.2017 11:00:00 8,6 8,4 35 19 54 29 SSE
19.10.2017 10:00:00 8,2 8,2 42 23 59 32 SSE
19.10.2017 09:00:00 8,1 8,1 42 23 52 28 SSE
19.10.2017 08:00:00 7,8 7,8 39 21 52 28 SSE
19.10.2017 07:00:00 7,4 7,4 37 20 46 25 SE
19.10.2017 06:00:00 7,1 7,1 34 18 - - SE
19.10.2017 05:00:00 7,1 7,1 35 19 - - SE
19.10.2017 04:00:00 6,9 6,9 31 17 46 25 SE
19.10.2017 03:00:00 6,7 6,7 34 18 46 25 ESE
19.10.2017 02:00:00 6,2 6,2 28 15 - - SE
19.10.2017 01:00:00 6,1 6,1 24 13 46 25 SSE
19.10.2017 00:00:00 5,7 5,7 35 19 48 26 ESE
18.10.2017 23:00:00 5,4 5,4 31 17 - - ESE
18.10.2017 22:00:00 5,2 5,2 35 19 50 27 ESE
18.10.2017 21:00:00 5,1 5,1 37 20 54 29 ESE
18.10.2017 20:00:00 5,0 5,0 37 20 50 27 ESE
18.10.2017 19:00:00 5,1 5,1 41 22 52 28 ESE
18.10.2017 18:00:00 5,2 5,2 35 19 48 26 ESE
18.10.2017 17:00:00 5,3 5,3 29 16 - - ESE
18.10.2017 16:00:00 5,3 5,3 29 16 48 26 ESE
18.10.2017 15:00:00 5,4 5,4 31 17 - - ESE
18.10.2017 14:00:00 5,3 5,3 29 16 48 26 ESE
18.10.2017 13:00:00 5,0 5,0 34 18 46 25 ESE
18.10.2017 12:00:00 4,8 4,8 28 15 - - ESE
18.10.2017 11:00:00 4,6 4,5 22 12 - - ESE
18.10.2017 10:00:00 4,6 4,0 21 11 - - ESE
18.10.2017 09:00:00 4,6 3,9 22 12 - - ESE
18.10.2017 08:00:00 4,5 3,9 28 15 - - ESE
18.10.2017 07:00:00 4,5 4,2 26 14 - - ESE
18.10.2017 06:00:00 4,6 4,3 26 14 - - ESE
18.10.2017 05:00:00 4,9 4,8 29 16 - - SE
18.10.2017 04:00:00 5,1 5,1 18 10 - - SE
18.10.2017 03:00:00 5,4 5,1 22 12 - - E
18.10.2017 02:00:00 5,6 5,5 9 5 - - SSE
18.10.2017 01:00:00 5,6 5,3 11 6 - - E
18.10.2017 00:00:00 6,0 5,3 15 8 - - ENE
17.10.2017 23:00:00 5,9 5,4 16 9 - - ENE
17.10.2017 22:00:00 6,3 5,1 22 12 - - ENE
17.10.2017 21:00:00 6,5 5,6 21 11 - - NE
17.10.2017 20:00:00 6,6 5,8 21 11 - - NE
17.10.2017 19:00:00 7,2 6,7 11 6 - - NE
17.10.2017 18:00:00 7,6 7,3 16 9 - - NNW
17.10.2017 17:00:00 7,7 7,7 24 13 - - W
17.10.2017 16:00:00 8,1 7,8 26 14 - - W
17.10.2017 15:00:00 8,2 7,7 35 19 54 29 W
17.10.2017 14:00:00 8,4 8,2 42 23 55 30 W
17.10.2017 13:00:00 8,0 8,0 41 22 63 34 W
17.10.2017 12:00:00 8,3 8,3 42 23 63 34 W
17.10.2017 11:00:00 8,6 8,6 46 25 68 37 W
17.10.2017 10:00:00 8,4 8,4 48 26 68 37 W
17.10.2017 09:00:00 9,0 9,0 39 21 80 43 WSW
17.10.2017 08:00:00 9,0 9,0 52 28 81 44 WSW
17.10.2017 07:00:00 9,1 9,1 55 30 87 47 WSW
17.10.2017 06:00:00 9,2 9,2 55 30 104 56 WSW
17.10.2017 05:00:00 10,0 10,0 54 29 96 52 WSW
17.10.2017 04:00:00 9,4 9,4 54 29 115 62 SSW
17.10.2017 03:00:00 9,1 9,1 70 38 117 63 S
17.10.2017 02:00:00 9,0 9,0 74 40 111 60 SSW
17.10.2017 01:00:00 8,9 8,9 70 38 109 59 S
17.10.2017 00:00:00 8,9 8,9 67 36 107 58 S
16.10.2017 23:00:00 9,1 9,1 76 41 106 57 S
16.10.2017 22:00:00 9,0 9,0 70 38 96 52 S
16.10.2017 21:00:00 8,4 8,4 55 30 94 51 SSE
16.10.2017 20:00:00 8,1 8,1 67 36 102 55 SSE
16.10.2017 19:00:00 8,7 7,5 68 37 96 52 SSE
16.10.2017 18:00:00 10,8 9,2 61 33 100 54 SSE
16.10.2017 17:00:00 9,8 9,8 63 34 93 50 ESE
16.10.2017 16:00:00 9,3 9,3 52 28 93 50 ESE
16.10.2017 15:00:00 8,9 8,9 42 23 63 34 SE
16.10.2017 14:00:00 8,8 8,8 34 18 50 27 ESE
16.10.2017 13:00:00 7,7 7,7 11 6 - - ESE
16.10.2017 12:00:00 7,7 7,7 24 13 52 28 ESE
16.10.2017 11:00:00 6,7 6,7 28 15 52 28 ESE
16.10.2017 10:00:00 6,2 6,2 31 17 46 25 ESE
16.10.2017 09:00:00 6,2 6,2 15 8 - - SSE
16.10.2017 08:00:00 6,1 6,1 9 5 - - E
16.10.2017 07:00:00 5,9 5,9 11 6 - - NE
16.10.2017 06:00:00 6,0 5,7 8 4 - - NE
16.10.2017 05:00:00 6,2 5,7 9 5 - - E
16.10.2017 04:00:00 6,4 5,3 15 8 - - ENE
16.10.2017 03:00:00 6,7 5,5 5 3 - - ESE
16.10.2017 02:00:00 7,2 5,5 11 6 - - SE
16.10.2017 01:00:00 6,8 5,5 5 3 - - ESE
16.10.2017 00:00:00 6,9 5,4 9 5 - - NNE
15.10.2017 23:00:00 6,9 6,0 5 3 - - NE
15.10.2017 22:00:00 6,1 6,1 8 4 - - N
15.10.2017 21:00:00 6,1 6,1 11 6 - - NW
15.10.2017 20:00:00 6,4 6,3 18 10 - - WNW
15.10.2017 19:00:00 6,6 6,1 16 9 - - W
15.10.2017 18:00:00 6,8 6,2 35 19 48 26 W
15.10.2017 17:00:00 7,4 7,2 34 18 61 33 W
15.10.2017 16:00:00 8,7 8,5 42 23 65 35 W
15.10.2017 15:00:00 12,5 9,1 42 23 78 42 SSW
15.10.2017 14:00:00 12,1 10,4 50 27 83 45 SSW
15.10.2017 13:00:00 11,4 11,1 48 26 85 46 SSW
15.10.2017 12:00:00 10,7 10,7 50 27 89 48 SSW
15.10.2017 11:00:00 10,3 10,3 52 28 93 50 S
15.10.2017 10:00:00 10,0 10,0 72 39 94 51 S
15.10.2017 09:00:00 9,8 9,8 72 39 106 57 S
15.10.2017 08:00:00 9,6 9,6 72 39 113 61 S
15.10.2017 07:00:00 9,4 9,4 74 40 102 55 S
15.10.2017 06:00:00 9,6 9,6 59 32 89 48 S
15.10.2017 05:00:00 9,7 9,7 57 31 96 52 S
15.10.2017 04:00:00 10,0 10,0 61 33 93 50 S
15.10.2017 03:00:00 10,3 10,3 59 32 102 55 S
15.10.2017 02:00:00 10,5 10,5 65 35 96 52 S
15.10.2017 01:00:00 10,4 10,4 57 31 83 45 S
15.10.2017 00:00:00 10,0 10,0 50 27 85 46 S
14.10.2017 23:00:00 9,1 9,1 46 25 61 33 S
14.10.2017 22:00:00 8,0 8,0 28 15 - - SSE
14.10.2017 21:00:00 7,1 7,1 22 12 - - SSE
14.10.2017 20:00:00 7,1 6,7 24 13 - - SE
14.10.2017 19:00:00 7,3 6,1 15 8 - - SSE
14.10.2017 18:00:00 7,1 6,2 18 10 - - W
14.10.2017 17:00:00 7,2 5,8 28 15 - - W
14.10.2017 16:00:00 7,5 5,5 22 12 - - W
14.10.2017 15:00:00 8,3 4,8 22 12 46 25 WSW
14.10.2017 14:00:00 8,5 4,5 31 17 59 32 WSW
14.10.2017 13:00:00 8,8 4,4 31 17 - - W
14.10.2017 12:00:00 9,2 4,3 29 16 - - SW
14.10.2017 11:00:00 9,0 2,8 26 14 - - W
14.10.2017 10:00:00 8,5 4,8 24 13 - - W
14.10.2017 09:00:00 8,2 4,5 31 17 54 29 W
14.10.2017 08:00:00 8,3 3,4 34 18 54 29 W

tt = temperature
td = dewpoint
ff = wind speed
fx = gusts
dd = wind direction

Next stations